createdAt,value
2019-03-25T00:00:30.965Z,5.90
2019-03-25T00:02:59.415Z,5.80
2019-03-25T00:05:27.862Z,5.80
2019-03-25T00:07:56.298Z,5.80
2019-03-25T00:10:24.745Z,5.70
2019-03-25T00:12:53.185Z,5.70
2019-03-25T00:15:21.629Z,5.70
2019-03-25T00:17:50.074Z,5.70
2019-03-25T00:20:18.599Z,5.70
2019-03-25T00:22:47.094Z,5.70
2019-03-25T00:25:15.654Z,5.70
2019-03-25T00:27:44.077Z,5.70
2019-03-25T00:30:13.074Z,5.70
2019-03-25T00:32:41.513Z,5.70
2019-03-25T00:35:10.053Z,5.70
2019-03-25T00:37:38.479Z,5.70
2019-03-25T00:40:07.269Z,5.70
2019-03-25T00:42:35.725Z,5.70
2019-03-25T00:45:05.865Z,5.80
2019-03-25T00:47:34.311Z,5.80
2019-03-25T00:50:02.851Z,5.80
2019-03-25T00:52:31.291Z,5.80
2019-03-25T00:54:59.735Z,5.80
2019-03-25T00:57:28.166Z,5.80
2019-03-25T00:59:56.624Z,5.80
2019-03-25T01:02:25.063Z,5.70
2019-03-25T01:04:53.551Z,5.70
2019-03-25T01:07:21.987Z,5.70
2019-03-25T01:09:50.438Z,5.60
2019-03-25T01:12:18.873Z,5.60
2019-03-25T01:14:47.320Z,5.60
2019-03-25T01:17:15.745Z,5.60
2019-03-25T01:19:44.195Z,5.60
2019-03-25T01:22:12.631Z,5.60
2019-03-25T01:24:41.098Z,5.80
2019-03-25T01:27:09.526Z,5.80
2019-03-25T01:29:37.981Z,5.90
2019-03-25T01:32:06.410Z,5.90
2019-03-25T01:34:34.861Z,5.80
2019-03-25T01:37:03.306Z,5.80
2019-03-25T01:39:31.756Z,5.80
2019-03-25T01:42:00.270Z,5.80
2019-03-25T01:44:28.715Z,5.70
2019-03-25T01:46:57.171Z,5.80
2019-03-25T01:49:25.610Z,5.80
2019-03-25T01:51:54.121Z,5.80
2019-03-25T01:54:22.558Z,5.80
2019-03-25T01:56:51.033Z,5.70
2019-03-25T01:59:19.458Z,5.70
2019-03-25T02:01:47.907Z,5.60
2019-03-25T02:04:16.347Z,5.50
2019-03-25T02:06:44.793Z,5.40
2019-03-25T02:09:13.232Z,5.40
2019-03-25T02:11:41.678Z,5.50
2019-03-25T02:14:10.121Z,5.50
2019-03-25T02:16:38.571Z,5.40
2019-03-25T02:19:07.000Z,5.30
2019-03-25T02:21:35.453Z,5.20
2019-03-25T02:24:03.885Z,5.20
2019-03-25T02:26:32.338Z,5.20
2019-03-25T02:29:00.786Z,5.10
2019-03-25T02:31:29.302Z,5.00
2019-03-25T02:33:57.739Z,5.10
2019-03-25T02:36:26.186Z,5.00
2019-03-25T02:38:54.620Z,4.90
2019-03-25T02:41:23.068Z,4.90
2019-03-25T02:43:51.508Z,4.80
2019-03-25T02:46:20.046Z,4.80
2019-03-25T02:48:48.483Z,4.80
2019-03-25T02:51:17.009Z,4.70
2019-03-25T02:53:45.443Z,4.80
2019-03-25T02:56:13.898Z,4.70
2019-03-25T02:58:42.402Z,4.70
2019-03-25T03:01:10.876Z,4.70
2019-03-25T03:03:39.309Z,4.70
2019-03-25T03:06:07.772Z,4.70
2019-03-25T03:08:36.290Z,4.70
2019-03-25T03:11:04.878Z,4.70
2019-03-25T03:13:33.320Z,4.70
2019-03-25T03:16:01.759Z,4.70
2019-03-25T03:18:30.220Z,4.70
2019-03-25T03:20:58.663Z,4.70
2019-03-25T03:23:27.126Z,4.80
2019-03-25T03:25:57.764Z,4.80
2019-03-25T03:28:25.819Z,4.80
2019-03-25T03:30:54.401Z,4.70
2019-03-25T03:33:22.892Z,4.80
2019-03-25T03:35:51.391Z,4.70
2019-03-25T03:38:19.874Z,4.70
2019-03-25T03:40:48.366Z,4.70
2019-03-25T03:43:16.825Z,4.70
2019-03-25T03:45:45.264Z,4.70
2019-03-25T03:48:13.786Z,4.70
2019-03-25T03:50:42.493Z,4.70
2019-03-25T03:53:11.254Z,4.70
2019-03-25T03:55:39.856Z,4.70
2019-03-25T03:58:08.531Z,4.80
2019-03-25T04:00:37.180Z,4.80
2019-03-25T04:03:05.772Z,4.80
2019-03-25T04:05:34.247Z,4.70
2019-03-25T04:08:02.803Z,4.70
2019-03-25T04:10:31.224Z,4.70
2019-03-25T04:13:00.102Z,4.70
2019-03-25T04:15:30.285Z,4.60
2019-03-25T04:17:59.363Z,4.60
2019-03-25T04:20:27.789Z,4.60
2019-03-25T04:22:56.249Z,4.60
2019-03-25T04:25:24.686Z,4.70
2019-03-25T04:27:53.265Z,4.70
2019-03-25T04:30:21.686Z,4.70
2019-03-25T04:32:50.138Z,4.80
2019-03-25T04:35:18.636Z,4.90
2019-03-25T04:37:47.078Z,4.80
2019-03-25T04:40:15.578Z,4.80
2019-03-25T04:42:44.027Z,4.80
2019-03-25T04:45:12.471Z,4.80
2019-03-25T04:47:40.926Z,4.80
2019-03-25T04:50:09.525Z,4.70
2019-03-25T04:52:38.015Z,4.80
2019-03-25T04:55:07.295Z,4.80
2019-03-25T04:57:35.741Z,4.90
2019-03-25T05:00:04.907Z,4.90
2019-03-25T05:02:33.342Z,4.90
2019-03-25T05:05:01.798Z,4.90
2019-03-25T05:07:30.225Z,5.00
2019-03-25T05:09:58.689Z,5.10
2019-03-25T05:12:27.136Z,5.10
2019-03-25T05:14:55.579Z,5.10
2019-03-25T05:17:24.014Z,5.10
2019-03-25T05:19:52.466Z,5.00
2019-03-25T05:22:20.903Z,4.90
2019-03-25T05:24:49.354Z,4.90
2019-03-25T05:27:17.786Z,4.90
2019-03-25T05:29:46.242Z,4.90
2019-03-25T05:32:14.675Z,5.00
2019-03-25T05:34:43.127Z,4.90
2019-03-25T05:37:11.639Z,5.00
2019-03-25T05:39:40.108Z,5.00
2019-03-25T05:42:08.554Z,5.00
2019-03-25T05:44:37.065Z,4.90
2019-03-25T05:47:07.497Z,4.90
2019-03-25T05:49:35.971Z,5.00
2019-03-25T05:52:04.401Z,4.90
2019-03-25T05:54:32.862Z,4.90
2019-03-25T05:57:02.726Z,4.70
2019-03-25T05:59:31.510Z,4.40
2019-03-25T06:01:59.945Z,4.10
2019-03-25T06:04:28.406Z,3.70
2019-03-25T06:06:56.834Z,3.50
2019-03-25T06:09:25.289Z,3.20
2019-03-25T06:11:53.719Z,3.20
2019-03-25T06:14:22.170Z,3.20
2019-03-25T06:16:50.604Z,3.20
2019-03-25T06:19:19.061Z,3.30
2019-03-25T06:21:47.521Z,3.30
2019-03-25T06:24:15.979Z,3.30
2019-03-25T06:26:44.417Z,3.30
2019-03-25T06:29:12.867Z,3.30
2019-03-25T06:31:41.327Z,3.30
2019-03-25T06:34:09.789Z,3.30
2019-03-25T06:36:38.226Z,3.40
2019-03-25T06:39:06.949Z,3.30
2019-03-25T06:41:35.391Z,3.30
2019-03-25T06:44:03.838Z,3.40
2019-03-25T06:46:32.274Z,3.20
2019-03-25T06:49:00.704Z,3.00
2019-03-25T06:51:29.167Z,2.80
2019-03-25T06:53:57.599Z,2.70
2019-03-25T06:56:26.070Z,2.70
2019-03-25T06:58:54.503Z,2.60
2019-03-25T07:01:22.957Z,2.60
2019-03-25T07:03:51.382Z,2.50
2019-03-25T07:06:19.864Z,2.60
2019-03-25T07:08:48.312Z,2.50
2019-03-25T07:11:16.858Z,2.40
2019-03-25T07:13:45.307Z,2.60
2019-03-25T07:16:13.779Z,2.50
2019-03-25T07:18:42.215Z,2.50
2019-03-25T07:21:10.669Z,2.50
2019-03-25T07:23:39.111Z,2.50
2019-03-25T07:26:07.573Z,2.60
2019-03-25T07:28:37.712Z,2.60
2019-03-25T07:31:06.184Z,2.60
2019-03-25T07:33:34.627Z,2.70
2019-03-25T07:36:03.234Z,2.70
2019-03-25T07:38:31.677Z,2.80
2019-03-25T07:41:00.133Z,2.80
2019-03-25T07:43:28.577Z,3.00
2019-03-25T07:45:57.021Z,3.00
2019-03-25T07:48:25.462Z,3.20
2019-03-25T07:50:53.919Z,3.20
2019-03-25T07:53:22.345Z,3.30
2019-03-25T07:55:50.800Z,3.40
2019-03-25T07:58:19.260Z,3.50
2019-03-25T08:00:47.780Z,3.50
2019-03-25T08:03:16.261Z,3.60
2019-03-25T08:05:44.722Z,3.60
2019-03-25T08:08:13.262Z,3.70
2019-03-25T08:10:41.781Z,3.70
2019-03-25T08:13:10.361Z,3.70
2019-03-25T08:15:38.995Z,3.80
2019-03-25T08:18:07.415Z,3.90
2019-03-25T08:20:35.858Z,3.90
2019-03-25T08:23:04.291Z,3.90
2019-03-25T08:25:32.742Z,4.00
2019-03-25T08:28:01.252Z,4.10
2019-03-25T08:30:29.769Z,4.30
2019-03-25T08:32:58.202Z,4.40
2019-03-25T08:35:26.658Z,4.60
2019-03-25T08:37:55.097Z,4.80
2019-03-25T08:40:23.529Z,4.90
2019-03-25T08:42:51.983Z,4.90
2019-03-25T08:45:20.401Z,4.80
2019-03-25T08:47:48.853Z,4.80
2019-03-25T08:50:17.310Z,4.60
2019-03-25T08:52:45.761Z,4.50
2019-03-25T08:55:14.282Z,4.60
2019-03-25T08:57:42.748Z,4.70
2019-03-25T09:00:12.782Z,4.90
2019-03-25T09:02:41.231Z,5.00
2019-03-25T09:05:09.811Z,5.20
2019-03-25T09:07:38.248Z,5.00
2019-03-25T09:10:08.593Z,6.20
2019-03-25T09:12:37.118Z,5.00
2019-03-25T09:15:08.453Z,4.90
2019-03-25T09:17:37.046Z,5.00
2019-03-25T09:20:07.412Z,5.10
2019-03-25T09:22:35.872Z,5.20
2019-03-25T09:25:06.339Z,5.20
2019-03-25T09:27:34.793Z,5.20
2019-03-25T09:30:03.833Z,5.30
2019-03-25T09:32:32.289Z,5.30
2019-03-25T09:35:00.723Z,5.30
2019-03-25T09:37:29.222Z,5.30
2019-03-25T09:39:57.698Z,5.50
2019-03-25T09:42:26.138Z,5.60
2019-03-25T09:44:54.649Z,5.60
2019-03-25T09:47:23.100Z,5.50
2019-03-25T09:49:51.531Z,5.60
2019-03-25T09:52:19.977Z,5.70
2019-03-25T09:54:48.410Z,5.90
2019-03-25T09:57:19.419Z,6.00
2019-03-25T09:59:47.066Z,6.00
2019-03-25T10:02:15.543Z,6.10
2019-03-25T10:04:43.980Z,6.10
2019-03-25T10:07:15.582Z,6.00
2019-03-25T10:09:44.021Z,6.10
2019-03-25T10:12:12.471Z,6.00
2019-03-25T10:14:40.902Z,6.00
2019-03-25T10:17:09.418Z,6.10
2019-03-25T10:19:37.874Z,6.30
2019-03-25T10:22:06.379Z,6.70
2019-03-25T10:24:34.824Z,6.80
2019-03-25T10:27:03.311Z,6.80
2019-03-25T10:29:31.766Z,6.90
2019-03-25T10:32:00.203Z,6.90
2019-03-25T10:34:28.655Z,7.00
2019-03-25T10:36:57.082Z,7.10
2019-03-25T10:39:25.538Z,7.10
2019-03-25T10:41:53.976Z,7.00
2019-03-25T10:44:22.423Z,6.90
2019-03-25T10:46:50.858Z,6.90
2019-03-25T10:49:19.350Z,6.90
2019-03-25T10:51:47.782Z,6.80
2019-03-25T10:54:16.242Z,6.90
2019-03-25T10:56:49.186Z,6.90
2019-03-25T10:59:14.861Z,7.00
2019-03-25T11:01:43.285Z,7.30
2019-03-25T11:04:11.743Z,7.40
2019-03-25T11:06:40.166Z,7.60
2019-03-25T11:09:08.622Z,7.80
2019-03-25T11:11:37.047Z,8.10
2019-03-25T11:14:05.502Z,8.30
2019-03-25T11:16:33.944Z,8.30
2019-03-25T11:19:02.399Z,8.30
2019-03-25T11:21:30.861Z,8.20
2019-03-25T11:23:59.308Z,8.20
2019-03-25T11:26:27.742Z,8.10
2019-03-25T11:28:56.201Z,8.30
2019-03-25T11:31:24.653Z,8.30
2019-03-25T11:33:53.186Z,8.10
2019-03-25T11:36:21.627Z,8.00
2019-03-25T11:38:50.152Z,7.90
2019-03-25T11:41:18.578Z,7.20
2019-03-25T11:43:47.023Z,6.90
2019-03-25T11:46:15.456Z,6.90
2019-03-25T11:48:43.906Z,7.10
2019-03-25T11:51:12.331Z,7.20
2019-03-25T11:53:40.766Z,7.30
2019-03-25T11:56:09.266Z,7.40
2019-03-25T11:58:37.725Z,7.60
2019-03-25T12:01:06.148Z,7.80
2019-03-25T12:03:34.594Z,7.80
2019-03-25T12:06:03.024Z,8.00
2019-03-25T12:08:31.471Z,8.20
2019-03-25T12:10:59.901Z,8.50
2019-03-25T12:13:28.349Z,8.70
2019-03-25T12:15:56.791Z,8.90
2019-03-25T12:18:25.229Z,9.10
2019-03-25T12:20:53.670Z,9.30
2019-03-25T12:23:26.296Z,9.30
2019-03-25T12:25:52.342Z,9.60
2019-03-25T12:28:20.976Z,9.60
2019-03-25T12:30:50.540Z,9.70
2019-03-25T12:33:18.986Z,9.20
2019-03-25T12:35:47.431Z,8.70
2019-03-25T12:38:15.861Z,8.40
2019-03-25T12:40:44.312Z,8.40
2019-03-25T12:43:12.751Z,8.40
2019-03-25T12:45:41.270Z,8.20
2019-03-25T12:48:09.700Z,7.80
2019-03-25T12:50:38.159Z,7.50
2019-03-25T12:53:06.590Z,7.70
2019-03-25T12:55:35.042Z,7.80
2019-03-25T12:58:03.569Z,7.90
2019-03-25T13:00:37.658Z,8.10
2019-03-25T13:03:06.349Z,8.40
2019-03-25T13:05:34.861Z,8.60
2019-03-25T13:08:03.370Z,8.80
2019-03-25T13:10:31.810Z,9.00
2019-03-25T13:13:00.243Z,9.30
2019-03-25T13:15:28.714Z,9.60
2019-03-25T13:17:57.186Z,9.60
2019-03-25T13:20:25.645Z,9.80
2019-03-25T13:22:54.074Z,10.10
2019-03-25T13:25:22.535Z,10.30
2019-03-25T13:27:50.982Z,10.10
2019-03-25T13:30:19.498Z,10.30
2019-03-25T13:32:47.945Z,10.40
2019-03-25T13:35:16.391Z,10.40
2019-03-25T13:37:44.825Z,10.40
2019-03-25T13:40:13.428Z,10.00
2019-03-25T13:42:41.860Z,9.60
2019-03-25T13:45:10.657Z,9.00
2019-03-25T13:47:39.089Z,8.30
2019-03-25T13:50:07.812Z,7.70
2019-03-25T13:52:36.240Z,7.20
2019-03-25T13:55:05.639Z,6.70
2019-03-25T13:57:34.065Z,6.30
2019-03-25T14:00:03.708Z,6.10
2019-03-25T14:02:32.343Z,5.90
2019-03-25T14:05:00.860Z,5.90
2019-03-25T14:07:29.289Z,5.80
2019-03-25T14:09:57.745Z,5.90
2019-03-25T14:12:26.185Z,5.90
2019-03-25T14:14:54.661Z,6.00
2019-03-25T14:17:23.310Z,5.90
2019-03-25T14:19:51.757Z,5.90
2019-03-25T14:22:20.235Z,5.90
2019-03-25T14:24:48.731Z,5.70
2019-03-25T14:27:17.176Z,6.00
2019-03-25T14:29:45.653Z,6.20
2019-03-25T14:32:14.101Z,6.60
2019-03-25T14:34:44.956Z,6.80
2019-03-25T14:37:12.716Z,7.00
2019-03-25T14:39:41.138Z,7.10
2019-03-25T14:42:09.591Z,7.20
2019-03-25T14:44:38.038Z,7.30
2019-03-25T14:47:06.550Z,7.30
2019-03-25T14:49:34.973Z,7.40
2019-03-25T14:52:03.503Z,7.10
2019-03-25T14:54:31.942Z,7.20
2019-03-25T14:57:00.472Z,7.10
2019-03-25T14:59:28.956Z,6.90
2019-03-25T15:01:57.407Z,6.90
2019-03-25T15:04:25.843Z,6.90
2019-03-25T15:06:54.294Z,6.90
2019-03-25T15:09:22.726Z,7.10
2019-03-25T15:11:51.170Z,7.00
2019-03-25T15:14:19.604Z,7.00
2019-03-25T15:16:48.072Z,7.00
2019-03-25T15:19:16.493Z,7.20
2019-03-25T15:21:44.996Z,7.20
2019-03-25T15:24:13.495Z,7.30
2019-03-25T15:26:42.012Z,7.30
2019-03-25T15:29:10.457Z,7.30
2019-03-25T15:31:38.963Z,7.50
2019-03-25T15:34:07.389Z,7.40
2019-03-25T15:36:35.846Z,7.30
2019-03-25T15:39:07.108Z,7.40
2019-03-25T15:41:35.610Z,7.40
2019-03-25T15:44:04.042Z,7.50
2019-03-25T15:46:32.502Z,7.60
2019-03-25T15:49:00.941Z,7.60
2019-03-25T15:51:29.400Z,7.60
2019-03-25T15:53:57.848Z,7.60
2019-03-25T15:56:26.359Z,7.60
2019-03-25T15:58:54.791Z,7.70
2019-03-25T16:01:23.423Z,7.70
2019-03-25T16:03:51.854Z,7.60
2019-03-25T16:06:22.332Z,7.60
2019-03-25T16:08:50.491Z,7.60
2019-03-25T16:11:18.951Z,7.60
2019-03-25T16:13:47.388Z,7.60
2019-03-25T16:16:15.841Z,7.50
2019-03-25T16:18:44.270Z,7.50
2019-03-25T16:21:12.781Z,7.50
2019-03-25T16:23:41.230Z,7.50
2019-03-25T16:26:09.675Z,7.50
2019-03-25T16:28:38.105Z,7.40
2019-03-25T16:31:06.713Z,7.40
2019-03-25T16:33:35.877Z,7.50
2019-03-25T16:36:04.473Z,7.50
2019-03-25T16:38:33.144Z,7.50
2019-03-25T16:41:01.574Z,7.50
2019-03-25T16:43:30.010Z,7.40
2019-03-25T16:45:58.449Z,7.40
2019-03-25T16:48:26.986Z,7.40
2019-03-25T16:50:55.489Z,7.20
2019-03-25T16:53:23.928Z,7.10
2019-03-25T16:55:52.387Z,7.10
2019-03-25T16:58:20.828Z,7.10
2019-03-25T17:00:49.268Z,7.00
2019-03-25T17:03:17.776Z,7.00
2019-03-25T17:05:46.210Z,6.90
2019-03-25T17:08:14.658Z,6.90
2019-03-25T17:10:43.097Z,6.90
2019-03-25T17:13:12.379Z,6.90
2019-03-25T17:15:40.825Z,6.90
2019-03-25T17:18:09.265Z,7.00
2019-03-25T17:20:37.717Z,7.10
2019-03-25T17:23:06.164Z,7.00
2019-03-25T17:25:34.596Z,6.90
2019-03-25T17:28:03.041Z,6.90
2019-03-25T17:30:31.486Z,6.80
2019-03-25T17:32:59.954Z,6.80
2019-03-25T17:35:28.391Z,6.70
2019-03-25T17:37:56.843Z,6.60
2019-03-25T17:40:25.387Z,6.70
2019-03-25T17:42:53.927Z,6.70
2019-03-25T17:45:22.502Z,6.70
2019-03-25T17:47:50.963Z,6.70
2019-03-25T17:50:19.455Z,6.80
2019-03-25T17:52:47.913Z,6.80
2019-03-25T17:55:16.403Z,6.80
2019-03-25T17:57:44.863Z,6.80
2019-03-25T18:00:13.814Z,6.80
2019-03-25T18:02:42.353Z,6.80
2019-03-25T18:05:11.182Z,6.90
2019-03-25T18:07:39.636Z,6.70
2019-03-25T18:10:08.813Z,6.70
2019-03-25T18:12:39.134Z,6.70
2019-03-25T18:15:10.585Z,6.80
2019-03-25T18:17:39.028Z,6.80
2019-03-25T18:20:18.086Z,6.90
2019-03-25T18:22:39.815Z,7.00
2019-03-25T18:25:08.232Z,7.00
2019-03-25T18:27:36.740Z,7.00
2019-03-25T18:30:06.909Z,7.10
2019-03-25T18:32:35.363Z,7.10
2019-03-25T18:35:04.674Z,7.10
2019-03-25T18:37:33.217Z,7.10
2019-03-25T18:40:01.807Z,7.10
2019-03-25T18:42:30.294Z,7.10
2019-03-25T18:44:58.769Z,7.10
2019-03-25T18:47:27.218Z,7.10
2019-03-25T18:49:55.669Z,7.10
2019-03-25T18:52:24.102Z,7.00
2019-03-25T18:54:52.614Z,7.10
2019-03-25T18:57:21.058Z,7.00
2019-03-25T18:59:49.516Z,7.00
2019-03-25T19:02:17.950Z,7.00
2019-03-25T19:04:46.402Z,7.00
2019-03-25T19:07:14.848Z,6.90
2019-03-25T19:09:43.311Z,6.90
2019-03-25T19:12:11.742Z,6.80
2019-03-25T19:14:40.195Z,6.80
2019-03-25T19:17:08.658Z,6.80
2019-03-25T19:19:37.165Z,6.70
2019-03-25T19:22:05.707Z,6.60
2019-03-25T19:24:34.228Z,6.60
2019-03-25T19:27:02.666Z,6.60
2019-03-25T19:29:31.178Z,6.60
2019-03-25T19:32:06.633Z,6.50
2019-03-25T19:34:29.851Z,6.40
2019-03-25T19:36:58.289Z,6.40
2019-03-25T19:39:26.748Z,6.30
2019-03-25T19:41:55.341Z,6.30
2019-03-25T19:44:23.924Z,6.20
2019-03-25T19:46:52.433Z,6.20
2019-03-25T19:49:20.874Z,6.10
2019-03-25T19:51:49.333Z,6.10
2019-03-25T19:54:17.838Z,6.00
2019-03-25T19:56:46.338Z,6.00
2019-03-25T19:59:14.807Z,5.90
2019-03-25T20:01:43.317Z,5.90
2019-03-25T20:04:11.835Z,5.80
2019-03-25T20:06:40.333Z,5.80
2019-03-25T20:09:09.237Z,5.80
2019-03-25T20:11:37.828Z,5.70
2019-03-25T20:14:06.315Z,5.70
2019-03-25T20:16:36.509Z,5.70
2019-03-25T20:19:05.024Z,5.70
2019-03-25T20:21:33.467Z,5.60
2019-03-25T20:24:01.947Z,5.50
2019-03-25T20:26:30.485Z,5.50
2019-03-25T20:28:59.866Z,5.50
2019-03-25T20:31:28.316Z,5.50
2019-03-25T20:33:56.834Z,5.50
2019-03-25T20:36:25.357Z,5.40
2019-03-25T20:38:53.788Z,5.30
2019-03-25T20:41:22.367Z,5.30
2019-03-25T20:43:50.836Z,5.20
2019-03-25T20:46:19.353Z,5.20
2019-03-25T20:48:47.811Z,5.20
2019-03-25T20:51:16.345Z,5.20
2019-03-25T20:53:44.850Z,5.10
2019-03-25T20:56:13.303Z,5.10
2019-03-25T20:58:41.785Z,5.00
2019-03-25T21:01:10.269Z,5.10
2019-03-25T21:03:38.742Z,5.10
2019-03-25T21:06:07.223Z,5.10
2019-03-25T21:08:35.668Z,5.10
2019-03-25T21:11:04.196Z,5.00
2019-03-25T21:13:32.652Z,5.00
2019-03-25T21:16:01.171Z,4.90
2019-03-25T21:18:29.652Z,4.90
2019-03-25T21:20:58.233Z,4.90
2019-03-25T21:23:26.684Z,4.90
2019-03-25T21:25:55.180Z,4.90
2019-03-25T21:28:23.671Z,4.80
2019-03-25T21:30:52.288Z,4.90
2019-03-25T21:33:20.797Z,4.90
2019-03-25T21:35:49.347Z,4.80
2019-03-25T21:38:18.728Z,4.80
2019-03-25T21:40:47.182Z,4.80
2019-03-25T21:43:15.613Z,4.70
2019-03-25T21:45:44.093Z,4.70
2019-03-25T21:48:12.603Z,4.70
2019-03-25T21:50:41.080Z,4.60
2019-03-25T21:53:09.512Z,4.60
2019-03-25T21:55:38.032Z,4.60
2019-03-25T21:58:06.518Z,4.50
2019-03-25T22:00:35.102Z,4.50
2019-03-25T22:03:11.470Z,4.50
2019-03-25T22:05:33.704Z,4.40
2019-03-25T22:08:02.121Z,4.40
2019-03-25T22:10:30.575Z,4.40
2019-03-25T22:12:59.005Z,4.40
2019-03-25T22:15:27.470Z,4.30
2019-03-25T22:17:55.915Z,4.30
2019-03-25T22:20:24.349Z,4.30
2019-03-25T22:22:52.797Z,4.20
2019-03-25T22:25:21.226Z,4.10
2019-03-25T22:27:49.654Z,4.10
2019-03-25T22:30:18.170Z,4.10
2019-03-25T22:32:46.624Z,4.00
2019-03-25T22:35:15.052Z,4.00
2019-03-25T22:37:43.510Z,4.00
2019-03-25T22:40:12.012Z,3.90
2019-03-25T22:42:40.474Z,3.90
2019-03-25T22:45:09.040Z,3.90
2019-03-25T22:47:37.488Z,3.90
2019-03-25T22:50:07.253Z,3.90
2019-03-25T22:52:35.702Z,3.80
2019-03-25T22:55:06.172Z,3.80
2019-03-25T22:57:34.613Z,3.70
2019-03-25T23:00:03.044Z,3.70
2019-03-25T23:02:31.520Z,3.60
2019-03-25T23:04:59.942Z,3.60
2019-03-25T23:07:28.400Z,3.50
2019-03-25T23:09:56.829Z,3.50
2019-03-25T23:12:25.289Z,3.60
2019-03-25T23:14:53.717Z,3.50
2019-03-25T23:17:22.165Z,3.50
2019-03-25T23:19:50.592Z,3.60
2019-03-25T23:22:19.045Z,3.60
2019-03-25T23:24:47.479Z,3.60
2019-03-25T23:27:15.962Z,3.70
2019-03-25T23:29:44.396Z,3.60
2019-03-25T23:32:12.890Z,3.50
2019-03-25T23:34:41.334Z,3.40
2019-03-25T23:37:09.881Z,3.50
2019-03-25T23:39:38.325Z,3.50
2019-03-25T23:42:06.835Z,3.60
2019-03-25T23:44:35.262Z,3.60
2019-03-25T23:47:03.714Z,3.50
2019-03-25T23:49:32.163Z,3.60
2019-03-25T23:52:00.618Z,3.50
2019-03-25T23:54:29.122Z,3.40
2019-03-25T23:56:57.578Z,3.40
2019-03-25T23:59:26.005Z,3.40
